createdAt,value
2019-01-28T00:01:49.750Z,96692.70
2019-01-28T00:04:18.681Z,96692.81
2019-01-28T00:06:47.767Z,96700.23
2019-01-28T00:09:18.864Z,96704.69
2019-01-28T00:11:47.511Z,96715.17
2019-01-28T00:14:16.418Z,96723.52
2019-01-28T00:16:45.385Z,96717.06
2019-01-28T00:19:14.159Z,96724.92
2019-01-28T00:21:43.290Z,96724.48
2019-01-28T00:24:12.064Z,96726.34
2019-01-28T00:26:40.831Z,96725.02
2019-01-28T00:29:09.675Z,96733.90
2019-01-28T00:31:38.463Z,96734.34
2019-01-28T00:34:07.309Z,96743.31
2019-01-28T00:36:36.170Z,96740.02
2019-01-28T00:39:08.582Z,96732.67
2019-01-28T00:41:37.432Z,96735.23
2019-01-28T00:44:06.397Z,96740.66
2019-01-28T00:46:35.189Z,96744.22
2019-01-28T00:49:04.078Z,96735.73
2019-01-28T00:51:32.931Z,96735.93
2019-01-28T00:54:01.697Z,96754.50
2019-01-28T00:56:30.571Z,96732.57
2019-01-28T00:58:59.350Z,96751.91
2019-01-28T01:01:28.275Z,96756.50
2019-01-28T01:03:57.583Z,96754.13
2019-01-28T01:06:26.368Z,96757.89
2019-01-28T01:08:55.253Z,96745.05
2019-01-28T01:11:24.115Z,96744.45
2019-01-28T01:13:52.961Z,96742.81
2019-01-28T01:16:21.781Z,96752.30
2019-01-28T01:18:50.584Z,96743.94
2019-01-28T01:21:19.593Z,96737.02
2019-01-28T01:23:48.429Z,96737.62
2019-01-28T01:26:17.289Z,96746.67
2019-01-28T01:28:46.143Z,96748.25
2019-01-28T01:31:14.994Z,96746.20
2019-01-28T01:33:43.843Z,96753.10
2019-01-28T01:36:12.698Z,96748.77
2019-01-28T01:38:41.470Z,96747.08
2019-01-28T01:41:10.345Z,96751.85
2019-01-28T01:43:39.115Z,96760.27
2019-01-28T01:46:08.364Z,96756.62
2019-01-28T01:48:37.206Z,96758.97
2019-01-28T01:51:06.059Z,96757.80
2019-01-28T01:53:34.834Z,96756.98
2019-01-28T01:56:03.797Z,96763.34
2019-01-28T01:58:32.568Z,96765.84
2019-01-28T02:01:01.449Z,96767.38
2019-01-28T02:03:30.360Z,96763.66
2019-01-28T02:06:00.060Z,96761.06
2019-01-28T02:08:28.936Z,96763.88
2019-01-28T02:10:57.827Z,96754.56
2019-01-28T02:13:26.712Z,96763.66
2019-01-28T02:15:55.565Z,96763.81
2019-01-28T02:18:24.377Z,96761.98
2019-01-28T02:20:53.222Z,96755.50
2019-01-28T02:23:22.075Z,96741.38
2019-01-28T02:25:50.848Z,96740.93
2019-01-28T02:28:19.629Z,96737.39
2019-01-28T02:30:48.472Z,96732.14
2019-01-28T02:33:17.419Z,96728.23
2019-01-28T02:35:46.186Z,96723.41
2019-01-28T02:38:15.050Z,96731.40
2019-01-28T02:40:43.933Z,96726.92
2019-01-28T02:43:12.719Z,96726.34
2019-01-28T02:45:41.639Z,96720.35
2019-01-28T02:48:10.504Z,96721.26
2019-01-28T02:50:39.268Z,96710.88
2019-01-28T02:53:08.076Z,96704.34
2019-01-28T02:55:36.847Z,96704.34
2019-01-28T02:58:05.776Z,96712.44
2019-01-28T03:00:34.694Z,96711.26
2019-01-28T03:03:03.485Z,96715.03
2019-01-28T03:05:32.562Z,96714.79
2019-01-28T03:08:01.351Z,96708.31
2019-01-28T03:10:30.323Z,96713.40
2019-01-28T03:12:59.105Z,96713.16
2019-01-28T03:15:27.881Z,96709.52
2019-01-28T03:17:56.752Z,96716.09
2019-01-28T03:20:25.602Z,96713.63
2019-01-28T03:22:54.387Z,96719.20
2019-01-28T03:25:23.236Z,96710.72
2019-01-28T03:27:52.095Z,96710.36
2019-01-28T03:30:21.510Z,96701.98
2019-01-28T03:32:50.479Z,96699.53
2019-01-28T03:35:19.643Z,96695.77
2019-01-28T03:37:49.170Z,96689.41
2019-01-28T03:40:19.513Z,96697.52
2019-01-28T03:42:48.625Z,96690.45
2019-01-28T03:45:18.961Z,96689.15
2019-01-28T03:47:48.003Z,96693.05
2019-01-28T03:50:17.572Z,96686.99
2019-01-28T03:52:46.802Z,96687.60
2019-01-28T03:55:15.823Z,96680.81
2019-01-28T03:57:44.791Z,96698.33
2019-01-28T04:00:16.860Z,96690.70
2019-01-28T04:02:45.804Z,96695.72
2019-01-28T04:05:14.832Z,96693.34
2019-01-28T04:07:43.710Z,96697.95
2019-01-28T04:10:15.454Z,96689.33
2019-01-28T04:12:44.311Z,96691.92
2019-01-28T04:15:14.069Z,96689.41
2019-01-28T04:17:43.020Z,96692.72
2019-01-28T04:20:13.225Z,96702.49
2019-01-28T04:22:42.064Z,96701.70
2019-01-28T04:25:11.577Z,96693.27
2019-01-28T04:27:40.422Z,96705.38
2019-01-28T04:30:13.047Z,96699.80
2019-01-28T04:32:41.814Z,96701.92
2019-01-28T04:35:10.983Z,96708.83
2019-01-28T04:37:39.833Z,96708.89
2019-01-28T04:40:09.351Z,96708.30
2019-01-28T04:42:38.185Z,96711.34
2019-01-28T04:45:09.430Z,96710.48
2019-01-28T04:47:38.311Z,96715.80
2019-01-28T04:50:10.073Z,96718.19
2019-01-28T04:52:39.076Z,96712.31
2019-01-28T04:55:08.189Z,96715.74
2019-01-28T04:57:37.720Z,96702.41
2019-01-28T05:00:10.338Z,96706.58
2019-01-28T05:02:39.214Z,96701.27
2019-01-28T05:05:08.386Z,96707.89
2019-01-28T05:07:38.163Z,96714.48
2019-01-28T05:10:08.668Z,96709.20
2019-01-28T05:12:38.421Z,96707.55
2019-01-28T05:15:08.159Z,96715.80
2019-01-28T05:17:36.917Z,96712.08
2019-01-28T05:20:07.876Z,96714.25
2019-01-28T05:22:36.675Z,96712.93
2019-01-28T05:25:06.455Z,96706.60
2019-01-28T05:27:35.229Z,96708.23
2019-01-28T05:30:05.533Z,96710.04
2019-01-28T05:32:34.332Z,96711.55
2019-01-28T05:35:03.270Z,96706.01
2019-01-28T05:37:32.095Z,96704.60
2019-01-28T05:40:00.881Z,96696.67
2019-01-28T05:42:29.652Z,96693.05
2019-01-28T05:44:58.439Z,96692.32
2019-01-28T05:47:27.208Z,96691.38
2019-01-28T05:49:55.994Z,96699.51
2019-01-28T05:52:24.761Z,96697.55
2019-01-28T05:54:53.791Z,96699.66
2019-01-28T05:57:22.728Z,96692.45
2019-01-28T05:59:51.524Z,96691.13
2019-01-28T06:02:20.307Z,96709.17
2019-01-28T06:04:49.137Z,96697.00
2019-01-28T06:07:17.882Z,96697.46
2019-01-28T06:09:46.748Z,96700.66
2019-01-28T06:12:15.693Z,96706.43
2019-01-28T06:14:44.616Z,96699.77
2019-01-28T06:17:13.386Z,96705.50
2019-01-28T06:19:42.197Z,96703.00
2019-01-28T06:22:11.223Z,96700.30
2019-01-28T06:24:40.015Z,96695.47
2019-01-28T06:27:08.911Z,96699.97
2019-01-28T06:29:37.699Z,96695.64
2019-01-28T06:32:06.610Z,96694.21
2019-01-28T06:34:35.477Z,96710.83
2019-01-28T06:37:04.602Z,96701.40
2019-01-28T06:39:33.389Z,96698.67
2019-01-28T06:42:02.237Z,96697.36
2019-01-28T06:44:31.020Z,96699.74
2019-01-28T06:46:59.865Z,96705.00
2019-01-28T06:49:28.723Z,96699.46
2019-01-28T06:51:57.621Z,96699.46
2019-01-28T06:54:26.507Z,96704.08
2019-01-28T06:56:55.275Z,96710.45
2019-01-28T06:59:24.056Z,96707.98
2019-01-28T07:01:52.993Z,96710.19
2019-01-28T07:04:21.796Z,96723.52
2019-01-28T07:06:50.562Z,96725.54
2019-01-28T07:09:19.547Z,96718.36
2019-01-28T07:11:48.407Z,96711.17
2019-01-28T07:14:17.500Z,96718.12
2019-01-28T07:16:46.325Z,96724.24
2019-01-28T07:19:15.115Z,96726.34
2019-01-28T07:21:43.993Z,96723.66
2019-01-28T07:24:12.912Z,96717.15
2019-01-28T07:26:42.759Z,96726.53
2019-01-28T07:29:11.542Z,96719.48
2019-01-28T07:31:40.413Z,96721.13
2019-01-28T07:34:09.265Z,96719.81
2019-01-28T07:36:38.220Z,96721.97
2019-01-28T07:39:08.366Z,96728.24
2019-01-28T07:41:37.156Z,96723.97
2019-01-28T07:44:05.964Z,96717.72
2019-01-28T07:46:34.951Z,96726.98
2019-01-28T07:49:03.806Z,96728.27
2019-01-28T07:51:32.733Z,96722.18
2019-01-28T07:54:01.526Z,96726.98
2019-01-28T07:56:30.307Z,96722.37
2019-01-28T07:58:59.231Z,96725.73
2019-01-28T08:01:28.080Z,96721.48
2019-01-28T08:03:56.947Z,96723.27
2019-01-28T08:06:25.892Z,96723.34
2019-01-28T08:08:54.723Z,96731.42
2019-01-28T08:11:23.663Z,96730.06
2019-01-28T08:13:52.596Z,96722.18
2019-01-28T08:16:21.332Z,96732.40
2019-01-28T08:18:50.472Z,96736.99
2019-01-28T08:21:19.261Z,96729.34
2019-01-28T08:23:48.043Z,96732.94
2019-01-28T08:26:16.982Z,96735.86
2019-01-28T08:28:45.866Z,96733.03
2019-01-28T08:31:14.737Z,96733.50
2019-01-28T08:33:44.380Z,96738.98
2019-01-28T08:36:13.169Z,96729.41
2019-01-28T08:38:41.937Z,96732.00
2019-01-28T08:41:10.794Z,96730.81
2019-01-28T08:43:39.563Z,96743.11
2019-01-28T08:46:08.447Z,96737.91
2019-01-28T08:48:37.286Z,96737.05
2019-01-28T08:51:06.232Z,96738.65
2019-01-28T08:53:35.102Z,96738.52
2019-01-28T08:56:04.264Z,96740.08
2019-01-28T08:58:33.110Z,96735.09
2019-01-28T09:01:02.187Z,96734.59
2019-01-28T09:03:31.203Z,96732.27
2019-01-28T09:06:00.188Z,96727.47
2019-01-28T09:08:29.053Z,96720.59
2019-01-28T09:10:57.974Z,96724.95
2019-01-28T09:13:26.915Z,96724.48
2019-01-28T09:15:55.934Z,96737.69
2019-01-28T09:18:26.358Z,96733.63
2019-01-28T09:20:55.609Z,96741.16
2019-01-28T09:23:24.495Z,96741.09
2019-01-28T09:25:53.267Z,96743.45
2019-01-28T09:28:22.251Z,96743.45
2019-01-28T09:30:51.197Z,96739.72
2019-01-28T09:33:19.971Z,96745.23
2019-01-28T09:35:48.826Z,96743.11
2019-01-28T09:38:17.760Z,96744.66
2019-01-28T09:40:46.620Z,96736.37
2019-01-28T09:43:16.597Z,96750.73
2019-01-28T09:45:45.622Z,96741.91
2019-01-28T09:48:15.724Z,96736.25
2019-01-28T09:50:45.035Z,96741.98
2019-01-28T09:53:14.567Z,96745.70
2019-01-28T09:55:43.537Z,96749.50
2019-01-28T09:58:12.497Z,96751.83
2019-01-28T10:00:44.114Z,96747.44
2019-01-28T10:03:13.051Z,96753.23
2019-01-28T10:05:41.922Z,96754.27
2019-01-28T10:08:11.880Z,96757.09
2019-01-28T10:10:40.833Z,96756.56
2019-01-28T10:13:09.757Z,96757.92
2019-01-28T10:15:38.673Z,96750.03
2019-01-28T10:18:07.729Z,96748.42
2019-01-28T10:20:44.411Z,96751.40
2019-01-28T10:23:09.759Z,96742.16
2019-01-28T10:25:40.853Z,96755.52
2019-01-28T10:28:09.793Z,96749.62
2019-01-28T10:30:40.178Z,96747.72
2019-01-28T10:33:09.908Z,96756.41
2019-01-28T10:35:40.637Z,96760.30
2019-01-28T10:38:10.023Z,96757.70
2019-01-28T10:40:40.686Z,96760.02
2019-01-28T10:43:10.338Z,96760.02
2019-01-28T10:45:39.388Z,96748.63
2019-01-28T10:48:10.280Z,96754.83
2019-01-28T10:50:40.298Z,96760.27
2019-01-28T10:53:09.271Z,96765.31
2019-01-28T10:55:38.065Z,96758.92
2019-01-28T10:58:07.331Z,96757.34
2019-01-28T11:00:38.612Z,96762.39
2019-01-28T11:03:09.344Z,96758.82
2019-01-28T11:05:38.205Z,96762.58
2019-01-28T11:08:07.574Z,96754.05
2019-01-28T11:10:36.523Z,96757.62
2019-01-28T11:13:06.387Z,96746.73
2019-01-28T11:15:35.258Z,96751.41
2019-01-28T11:18:06.446Z,96758.84
2019-01-28T11:20:35.391Z,96758.43
2019-01-28T11:23:04.355Z,96743.03
2019-01-28T11:25:33.401Z,96743.88
2019-01-28T11:28:02.389Z,96752.13
2019-01-28T11:30:45.971Z,96751.67
2019-01-28T11:33:14.967Z,96744.84
2019-01-28T11:35:44.460Z,96753.23
2019-01-28T11:38:14.665Z,96748.70
2019-01-28T11:40:43.752Z,96748.57
2019-01-28T11:43:12.684Z,96737.23
2019-01-28T11:45:57.166Z,96734.84
2019-01-28T11:48:26.285Z,96731.91
2019-01-28T11:50:56.065Z,96745.52
2019-01-28T11:53:25.368Z,96743.98
2019-01-28T11:55:54.219Z,96746.90
2019-01-28T11:58:23.151Z,96746.56
2019-01-28T12:01:14.610Z,96749.31
2019-01-28T12:03:43.452Z,96754.25
2019-01-28T12:06:12.391Z,96755.19
2019-01-28T12:08:41.324Z,96753.93
2019-01-28T12:11:10.614Z,96755.13
2019-01-28T12:13:39.395Z,96754.48
2019-01-28T12:16:08.480Z,96757.08
2019-01-28T12:18:37.587Z,96759.38
2019-01-28T12:21:06.933Z,96751.80
2019-01-28T12:23:35.817Z,96749.25
2019-01-28T12:26:05.147Z,96765.50
2019-01-28T12:28:34.001Z,96765.20
2019-01-28T12:31:02.862Z,96758.42
2019-01-28T12:33:32.205Z,96757.51
2019-01-28T12:36:01.079Z,96772.40
2019-01-28T12:38:29.853Z,96770.49
2019-01-28T12:40:58.714Z,96771.89
2019-01-28T12:43:27.561Z,96770.67
2019-01-28T12:45:56.423Z,96771.17
2019-01-28T12:48:25.298Z,96774.63
2019-01-28T12:50:54.159Z,96772.44
2019-01-28T12:53:22.972Z,96771.61
2019-01-28T12:55:52.784Z,96773.30
2019-01-28T12:58:21.640Z,96775.80
2019-01-28T13:00:55.412Z,96780.45
2019-01-28T13:03:24.522Z,96780.48
2019-01-28T13:05:53.433Z,96783.28
2019-01-28T13:08:23.188Z,96786.84
2019-01-28T13:10:52.108Z,96781.45
2019-01-28T13:13:21.063Z,96786.41
2019-01-28T13:15:50.503Z,96789.38
2019-01-28T13:18:19.312Z,96792.73
2019-01-28T13:20:48.100Z,96797.55
2019-01-28T13:23:16.956Z,96793.92
2019-01-28T13:25:45.880Z,96801.38
2019-01-28T13:28:14.835Z,96808.84
2019-01-28T13:30:43.760Z,96809.43
2019-01-28T13:33:14.795Z,96810.05
2019-01-28T13:35:43.732Z,96819.23
2019-01-28T13:38:12.607Z,96827.29
2019-01-28T13:40:41.537Z,96824.36
2019-01-28T13:43:10.405Z,96824.64
2019-01-28T13:45:39.246Z,96832.43
2019-01-28T13:48:12.500Z,96828.67
2019-01-28T13:50:41.914Z,96821.11
2019-01-28T13:53:10.853Z,96831.14
2019-01-28T13:55:39.708Z,96831.28
2019-01-28T13:58:08.978Z,96835.88
2019-01-28T14:00:38.015Z,96845.87
2019-01-28T14:03:07.301Z,96850.72
2019-01-28T14:05:36.227Z,96854.23
2019-01-28T14:08:05.983Z,96855.52
2019-01-28T14:10:34.828Z,96857.77
2019-01-28T14:13:03.800Z,96855.31
2019-01-28T14:15:34.924Z,96863.77
2019-01-28T14:18:04.220Z,96860.00
2019-01-28T14:20:33.654Z,96858.38
2019-01-28T14:23:02.597Z,96869.08
2019-01-28T14:25:31.734Z,96873.46
2019-01-28T14:28:00.711Z,96878.86
2019-01-28T14:30:38.004Z,96877.11
2019-01-28T14:33:07.532Z,96873.56
2019-01-28T14:35:36.705Z,96886.52
2019-01-28T14:38:07.776Z,96883.70
2019-01-28T14:40:37.010Z,96890.98
2019-01-28T14:43:06.133Z,96890.06
2019-01-28T14:45:35.055Z,96887.94
2019-01-28T14:48:04.216Z,96889.23
2019-01-28T14:50:33.473Z,96890.90
2019-01-28T14:53:02.332Z,96896.08
2019-01-28T14:55:31.369Z,96887.47
2019-01-28T14:58:00.419Z,96899.84
2019-01-28T15:00:31.738Z,96909.62
2019-01-28T15:03:00.690Z,96909.62
2019-01-28T15:05:29.755Z,96927.64
2019-01-28T15:07:58.676Z,96921.16
2019-01-28T15:10:27.934Z,96927.39
2019-01-28T15:12:57.792Z,96928.92
2019-01-28T15:15:29.025Z,96927.50
2019-01-28T15:17:58.206Z,96930.55
2019-01-28T15:20:28.036Z,96942.21
2019-01-28T15:22:56.967Z,96937.02
2019-01-28T15:25:26.053Z,96945.16
2019-01-28T15:27:54.930Z,96954.09
2019-01-28T15:30:26.055Z,96955.72
2019-01-28T15:32:55.077Z,96966.64
2019-01-28T15:35:24.028Z,96972.93
2019-01-28T15:37:52.983Z,96972.90
2019-01-28T15:40:27.630Z,96975.37
2019-01-28T15:42:56.557Z,96965.34
2019-01-28T15:45:27.788Z,96986.89
2019-01-28T15:47:56.824Z,96983.58
2019-01-28T15:50:25.943Z,96987.24
2019-01-28T15:52:54.978Z,96992.30
2019-01-28T15:55:26.895Z,96995.35
2019-01-28T15:57:55.754Z,96994.89
2019-01-28T16:00:26.971Z,97003.28
2019-01-28T16:02:56.004Z,97002.82
2019-01-28T16:05:24.947Z,97008.46
2019-01-28T16:07:54.406Z,97018.68
2019-01-28T16:10:23.365Z,97020.69
2019-01-28T16:12:52.517Z,97027.52
2019-01-28T16:15:24.645Z,97030.23
2019-01-28T16:17:53.516Z,97041.44
2019-01-28T16:20:22.781Z,97049.53
2019-01-28T16:22:51.726Z,97048.03
2019-01-28T16:25:20.671Z,97039.45
2019-01-28T16:27:49.534Z,97052.52
2019-01-28T16:30:26.146Z,97061.56
2019-01-28T16:32:51.523Z,97057.89
2019-01-28T16:35:20.800Z,97063.91
2019-01-28T16:37:50.121Z,97074.84
2019-01-28T16:40:20.471Z,97079.25
2019-01-28T16:42:50.209Z,97070.39
2019-01-28T16:45:19.584Z,97086.08
2019-01-28T16:47:48.517Z,97089.91
2019-01-28T16:50:26.730Z,97081.70
2019-01-28T16:52:50.925Z,97106.34
2019-01-28T16:55:19.851Z,97109.97
2019-01-28T16:57:48.886Z,97112.23
2019-01-28T17:00:26.611Z,97125.50
2019-01-28T17:02:55.482Z,97132.36
2019-01-28T17:05:24.480Z,97133.88
2019-01-28T17:07:53.434Z,97135.55
2019-01-28T17:10:22.417Z,97138.75
2019-01-28T17:12:51.390Z,97140.36
2019-01-28T17:15:20.545Z,97145.91
2019-01-28T17:17:49.470Z,97151.98
2019-01-28T17:20:23.691Z,97160.63
2019-01-28T17:22:52.553Z,97168.63
2019-01-28T17:25:23.762Z,97166.12
2019-01-28T17:27:52.694Z,97175.45
2019-01-28T17:30:45.295Z,97167.33
2019-01-28T17:33:14.441Z,97172.59
2019-01-28T17:35:43.477Z,97186.15
2019-01-28T17:38:12.430Z,97191.45
2019-01-28T17:40:42.766Z,97193.08
2019-01-28T17:43:12.692Z,97206.23
2019-01-28T17:45:41.742Z,97213.28
2019-01-28T17:48:11.509Z,97215.17
2019-01-28T17:50:43.650Z,97206.11
2019-01-28T17:53:11.597Z,97211.29
2019-01-28T17:55:40.530Z,97225.42
2019-01-28T17:58:09.994Z,97229.61
2019-01-28T18:00:48.986Z,97238.48
2019-01-28T18:03:19.564Z,97238.72
2019-01-28T18:05:48.515Z,97234.03
2019-01-28T18:08:17.416Z,97243.89
2019-01-28T18:10:46.418Z,97244.31
2019-01-28T18:13:15.135Z,97248.20
2019-01-28T18:15:44.064Z,97262.22
2019-01-28T18:18:12.941Z,97269.88
2019-01-28T18:20:41.857Z,97271.03
2019-01-28T18:23:18.100Z,97272.67
2019-01-28T18:25:46.918Z,97274.91
2019-01-28T18:28:15.786Z,97269.89
2019-01-28T18:30:47.093Z,97277.93
2019-01-28T18:33:15.947Z,97277.93
2019-01-28T18:35:44.892Z,97279.45
2019-01-28T18:38:13.749Z,97273.02
2019-01-28T18:40:42.693Z,97287.27
2019-01-28T18:43:11.684Z,97282.89
2019-01-28T18:45:40.622Z,97287.00
2019-01-28T18:48:10.139Z,97285.74
2019-01-28T18:50:39.185Z,97297.52
2019-01-28T18:53:08.591Z,97296.00
2019-01-28T18:55:37.533Z,97297.63
2019-01-28T18:58:07.235Z,97297.30
2019-01-28T19:00:36.283Z,97294.77
2019-01-28T19:03:06.243Z,97302.24
2019-01-28T19:05:40.926Z,97313.25
2019-01-28T19:08:20.158Z,97312.75
2019-01-28T19:11:08.047Z,97325.48
2019-01-28T19:13:47.405Z,97309.34
2019-01-28T19:16:28.808Z,97306.18
2019-01-28T19:19:13.083Z,97326.67
2019-01-28T19:21:46.989Z,97338.95
2019-01-28T19:24:15.799Z,97342.14
2019-01-28T19:26:44.669Z,97349.89
2019-01-28T19:29:13.534Z,97354.13
2019-01-28T19:31:42.513Z,97363.97
2019-01-28T19:34:11.461Z,97370.19
2019-01-28T19:36:40.500Z,97378.92
2019-01-28T19:39:10.047Z,97371.75
2019-01-28T19:41:39.523Z,97387.42
2019-01-28T19:44:09.455Z,97388.00
2019-01-28T19:46:38.321Z,97394.91
2019-01-28T19:49:07.265Z,97412.17
2019-01-28T19:51:36.050Z,97413.35
2019-01-28T19:54:05.590Z,97408.73
2019-01-28T19:56:34.492Z,97411.83
2019-01-28T19:59:03.264Z,97419.67
2019-01-28T20:01:32.044Z,97420.02
2019-01-28T20:04:00.929Z,97426.27
2019-01-28T20:06:29.724Z,97431.53
2019-01-28T20:08:58.553Z,97437.94
2019-01-28T20:11:27.474Z,97440.67
2019-01-28T20:13:56.256Z,97451.77
2019-01-28T20:16:25.252Z,97449.23
2019-01-28T20:18:54.034Z,97447.94
2019-01-28T20:21:23.957Z,97453.59
2019-01-28T20:23:53.032Z,97458.52
2019-01-28T20:26:21.901Z,97467.70
2019-01-28T20:28:50.817Z,97471.05
2019-01-28T20:31:20.194Z,97463.55
2019-01-28T20:33:49.055Z,97476.97
2019-01-28T20:36:17.847Z,97479.51
2019-01-28T20:38:46.710Z,97487.74
2019-01-28T20:41:15.556Z,97479.45
2019-01-28T20:43:44.465Z,97482.83
2019-01-28T20:46:13.448Z,97492.23
2019-01-28T20:48:42.216Z,97495.44
2019-01-28T20:51:11.735Z,97499.22
2019-01-28T20:53:40.558Z,97511.50
2019-01-28T20:56:09.604Z,97510.26
2019-01-28T20:58:38.692Z,97526.72
2019-01-28T21:01:07.643Z,97528.97
2019-01-28T21:03:36.759Z,97535.06
2019-01-28T21:06:06.191Z,97539.58
2019-01-28T21:08:35.154Z,97548.64
2019-01-28T21:11:04.203Z,97545.70
2019-01-28T21:13:33.209Z,97551.52
2019-01-28T21:16:02.118Z,97552.79
2019-01-28T21:18:31.208Z,97567.05
2019-01-28T21:21:00.134Z,97566.20
2019-01-28T21:23:29.094Z,97561.86
2019-01-28T21:25:58.132Z,97567.84
2019-01-28T21:28:26.921Z,97575.09
2019-01-28T21:30:55.689Z,97583.40
2019-01-28T21:33:24.641Z,97577.66
2019-01-28T21:36:11.398Z,97582.55
2019-01-28T21:38:48.465Z,97584.62
2019-01-28T21:41:17.339Z,97590.67
2019-01-28T21:43:46.375Z,97591.34
2019-01-28T21:46:15.361Z,97587.11
2019-01-28T21:48:44.258Z,97595.65
2019-01-28T21:51:13.266Z,97595.55
2019-01-28T21:53:42.125Z,97605.24
2019-01-28T21:56:10.999Z,97606.58
2019-01-28T21:58:39.785Z,97606.02
2019-01-28T22:02:41.048Z,97605.17
2019-01-28T22:05:10.088Z,97622.75
2019-01-28T22:07:38.953Z,97621.00
2019-01-28T22:10:08.104Z,97626.56
2019-01-28T22:12:37.040Z,97625.38
2019-01-28T22:15:07.085Z,97628.45
2019-01-28T22:17:35.932Z,97630.28
2019-01-28T22:20:06.956Z,97633.78
2019-01-28T22:22:35.809Z,97638.51
2019-01-28T22:25:05.744Z,97643.80
2019-01-28T22:27:34.533Z,97638.15
2019-01-28T22:30:03.667Z,97645.22
2019-01-28T22:32:32.534Z,97652.05
2019-01-28T22:35:01.466Z,97647.22
2019-01-28T22:37:30.299Z,97655.65
2019-01-28T22:39:59.116Z,97652.17
2019-01-28T22:42:27.967Z,97661.48
2019-01-28T22:44:56.789Z,97660.02
2019-01-28T22:47:25.548Z,97665.19
2019-01-28T22:49:54.341Z,97668.27
2019-01-28T22:52:23.144Z,97663.09
2019-01-28T22:54:52.008Z,97673.98
2019-01-28T22:57:20.769Z,97675.26
2019-01-28T22:59:49.555Z,97678.41
2019-01-28T23:02:18.410Z,97679.78
2019-01-28T23:04:47.199Z,97678.31
2019-01-28T23:07:16.043Z,97683.13
2019-01-28T23:09:45.151Z,97677.37
2019-01-28T23:12:13.913Z,97684.51
2019-01-28T23:14:42.694Z,97690.45
2019-01-28T23:17:11.624Z,97690.33
2019-01-28T23:19:40.399Z,97685.70
2019-01-28T23:22:16.189Z,97696.63
2019-01-28T23:24:39.854Z,97694.89
2019-01-28T23:27:08.824Z,97698.30
2019-01-28T23:29:37.588Z,97692.46
2019-01-28T23:32:06.541Z,97691.06
2019-01-28T23:34:35.321Z,97692.28
2019-01-28T23:37:04.459Z,97698.73
2019-01-28T23:39:33.320Z,97697.90
2019-01-28T23:42:02.104Z,97689.23
2019-01-28T23:44:31.019Z,97694.67
2019-01-28T23:46:59.897Z,97696.83
2019-01-28T23:49:28.694Z,97701.27
2019-01-28T23:51:57.491Z,97703.58
2019-01-28T23:54:26.270Z,97707.92
2019-01-28T23:56:55.128Z,97706.55
2019-01-28T23:59:23.970Z,97711.55
